createdAt,value
2023-01-13T00:00:13.545Z,100803.78
2023-01-13T00:02:40.221Z,100808.31
2023-01-13T00:05:07.359Z,100801.44
2023-01-13T00:07:33.963Z,100792.63
2023-01-13T00:10:00.539Z,100792.28
2023-01-13T00:12:27.147Z,100792.28
2023-01-13T00:14:53.805Z,100796.00
2023-01-13T00:17:20.351Z,100790.31
2023-01-13T00:19:49.865Z,100789.34
2023-01-13T00:22:16.489Z,100794.59
2023-01-13T00:24:43.008Z,100795.81
2023-01-13T00:27:09.666Z,100794.81
2023-01-13T00:29:36.375Z,100784.59
2023-01-13T00:32:03.078Z,100778.19
2023-01-13T00:34:29.657Z,100778.28
2023-01-13T00:36:57.932Z,100774.66
2023-01-13T00:39:24.501Z,100780.59
2023-01-13T00:42:11.928Z,100777.50
2023-01-13T00:44:38.497Z,100776.72
2023-01-13T00:47:05.774Z,100775.78
2023-01-13T00:49:32.394Z,100787.31
2023-01-13T00:51:58.958Z,100783.72
2023-01-13T00:54:25.675Z,100782.53
2023-01-13T00:56:52.251Z,100786.97
2023-01-13T00:59:18.867Z,100792.16
2023-01-13T01:01:45.672Z,100781.84
2023-01-13T01:04:12.479Z,100791.12
2023-01-13T01:06:39.103Z,100793.00
2023-01-13T01:09:05.932Z,100793.13
2023-01-13T01:11:36.467Z,100783.56
2023-01-13T01:14:03.552Z,100785.44
2023-01-13T01:16:34.186Z,100783.09
2023-01-13T01:19:01.470Z,100778.84
2023-01-13T01:21:28.911Z,100769.88
2023-01-13T01:23:58.164Z,100763.13
2023-01-13T01:26:26.871Z,100754.41
2023-01-13T01:28:54.520Z,100752.66
2023-01-13T01:31:25.405Z,100752.66
2023-01-13T01:33:55.949Z,100752.53
2023-01-13T01:36:26.783Z,100750.78
2023-01-13T01:38:55.455Z,100755.34
2023-01-13T01:41:26.806Z,100747.19
2023-01-13T01:44:00.367Z,100741.63
2023-01-13T01:46:39.090Z,100750.78
2023-01-13T01:49:23.074Z,100746.63
2023-01-13T01:52:37.147Z,100735.81
2023-01-13T01:55:10.462Z,100738.97
2023-01-13T01:57:49.115Z,100740.56
2023-01-13T02:00:15.950Z,100736.97
2023-01-13T02:02:46.086Z,100733.94
2023-01-13T02:05:13.544Z,100730.94
2023-01-13T02:07:42.837Z,100726.50
2023-01-13T02:10:13.531Z,100731.38
2023-01-13T02:12:44.603Z,100720.56
2023-01-13T02:15:13.001Z,100718.31
2023-01-13T02:17:57.794Z,100720.75
2023-01-13T02:20:30.352Z,100719.22
2023-01-13T02:23:57.885Z,100725.50
2023-01-13T02:26:52.298Z,100724.00
2023-01-13T02:30:13.352Z,100720.72
2023-01-13T02:32:42.543Z,100727.53
2023-01-13T02:35:26.346Z,100727.53
2023-01-13T02:37:54.908Z,100718.91
2023-01-13T02:40:27.140Z,100714.63
2023-01-13T02:43:27.958Z,100716.22
2023-01-13T02:45:57.224Z,100720.03
2023-01-13T02:48:25.434Z,100715.47
2023-01-13T02:51:02.140Z,100707.69
2023-01-13T02:53:51.371Z,100708.03
2023-01-13T02:56:19.916Z,100707.44
2023-01-13T02:58:48.847Z,100705.84
2023-01-13T03:01:15.538Z,100708.31
2023-01-13T03:03:43.638Z,100703.69
2023-01-13T03:06:20.301Z,100708.81
2023-01-13T03:08:55.026Z,100700.25
2023-01-13T03:11:22.097Z,100700.81
2023-01-13T03:13:57.998Z,100694.91
2023-01-13T03:16:39.793Z,100693.84
2023-01-13T03:19:20.657Z,100685.22
2023-01-13T03:22:22.331Z,100682.53
2023-01-13T03:24:57.860Z,100680.94
2023-01-13T03:27:35.759Z,100676.59
2023-01-13T03:30:28.874Z,100683.09
2023-01-13T03:33:10.258Z,100683.63
2023-01-13T03:35:44.015Z,100680.53
2023-01-13T03:38:15.559Z,100681.34
2023-01-13T03:40:54.832Z,100682.97
2023-01-13T03:43:48.033Z,100675.16
2023-01-13T03:46:22.616Z,100666.28
2023-01-13T03:48:55.756Z,100672.78
2023-01-13T03:51:25.714Z,100671.78
2023-01-13T03:54:00.821Z,100661.88
2023-01-13T03:56:34.098Z,100658.06
2023-01-13T03:59:05.159Z,100655.75
2023-01-13T04:02:03.306Z,100659.62
2023-01-13T04:04:39.304Z,100655.88
2023-01-13T04:07:47.761Z,100656.00
2023-01-13T04:10:19.601Z,100658.16
2023-01-13T04:13:00.731Z,100659.06
2023-01-13T04:15:37.484Z,100665.19
2023-01-13T04:18:14.902Z,100668.25
2023-01-13T04:20:43.494Z,100679.53
2023-01-13T04:23:10.727Z,100672.25
2023-01-13T04:25:37.696Z,100681.81
2023-01-13T04:28:05.098Z,100672.62
2023-01-13T04:30:31.755Z,100676.50
2023-01-13T04:32:58.423Z,100671.56
2023-01-13T04:35:25.180Z,100675.72
2023-01-13T04:37:51.921Z,100669.66
2023-01-13T04:40:23.782Z,100675.00
2023-01-13T04:42:50.414Z,100671.94
2023-01-13T04:45:19.775Z,100675.56
2023-01-13T04:47:48.539Z,100680.25
2023-01-13T04:50:19.848Z,100675.47
2023-01-13T04:52:47.880Z,100680.19
2023-01-13T04:55:14.818Z,100678.66
2023-01-13T04:57:41.607Z,100669.41
2023-01-13T05:00:09.898Z,100677.63
2023-01-13T05:02:36.593Z,100685.97
2023-01-13T05:05:03.488Z,100682.19
2023-01-13T05:07:30.072Z,100672.00
2023-01-13T05:09:56.649Z,100681.69
2023-01-13T05:12:42.472Z,100684.37
2023-01-13T05:15:31.137Z,100692.16
2023-01-13T05:17:57.886Z,100689.59
2023-01-13T05:20:24.850Z,100694.72
2023-01-13T05:23:10.468Z,100687.59
2023-01-13T05:25:44.372Z,100685.72
2023-01-13T05:28:11.390Z,100694.47
2023-01-13T05:30:43.955Z,100697.97
2023-01-13T05:33:14.883Z,100700.91
2023-01-13T05:35:45.209Z,100698.50
2023-01-13T05:38:14.882Z,100704.00
2023-01-13T05:41:01.011Z,100703.47
2023-01-13T05:43:28.138Z,100704.87
2023-01-13T05:45:57.885Z,100707.44
2023-01-13T05:48:27.783Z,100714.38
2023-01-13T05:50:54.912Z,100711.84
2023-01-13T05:53:22.216Z,100716.22
2023-01-13T05:55:49.624Z,100714.09
2023-01-13T05:58:18.011Z,100710.75
2023-01-13T06:00:45.079Z,100725.47
2023-01-13T06:03:12.214Z,100720.00
2023-01-13T06:05:39.207Z,100712.00
2023-01-13T06:08:07.663Z,100712.69
2023-01-13T06:10:34.827Z,100723.12
2023-01-13T06:13:01.910Z,100716.28
2023-01-13T06:15:28.695Z,100717.38
2023-01-13T06:17:56.538Z,100713.56
2023-01-13T06:20:24.160Z,100712.50
2023-01-13T06:22:52.537Z,100712.50
2023-01-13T06:25:42.724Z,100716.28
2023-01-13T06:28:09.388Z,100712.69
2023-01-13T06:30:43.930Z,100709.75
2023-01-13T06:33:15.113Z,100716.38
2023-01-13T06:35:49.805Z,100718.97
2023-01-13T06:38:18.748Z,100708.66
2023-01-13T06:40:45.730Z,100709.59
2023-01-13T06:43:16.557Z,100709.47
2023-01-13T06:45:56.709Z,100717.56
2023-01-13T06:48:28.977Z,100715.72
2023-01-13T06:50:55.555Z,100714.22
2023-01-13T06:53:22.145Z,100724.19
2023-01-13T06:55:48.860Z,100728.94
2023-01-13T06:58:15.594Z,100717.88
2023-01-13T07:00:42.495Z,100729.78
2023-01-13T07:03:11.986Z,100720.50
2023-01-13T07:05:41.200Z,100720.47
2023-01-13T07:08:09.700Z,100720.50
2023-01-13T07:10:37.622Z,100722.41
2023-01-13T07:13:23.953Z,100716.72
2023-01-13T07:15:58.024Z,100716.22
2023-01-13T07:18:27.382Z,100721.22
2023-01-13T07:20:55.680Z,100724.06
2023-01-13T07:23:22.393Z,100724.34
2023-01-13T07:25:49.211Z,100730.31
2023-01-13T07:28:16.148Z,100719.53
2023-01-13T07:30:42.757Z,100731.69
2023-01-13T07:33:09.717Z,100732.09
2023-01-13T07:35:36.314Z,100734.38
2023-01-13T07:38:02.919Z,100731.16
2023-01-13T07:40:29.623Z,100737.25
2023-01-13T07:43:14.991Z,100726.88
2023-01-13T07:45:41.596Z,100728.91
2023-01-13T07:48:08.169Z,100739.03
2023-01-13T07:50:34.807Z,100735.94
2023-01-13T07:53:01.564Z,100746.03
2023-01-13T07:55:28.124Z,100743.22
2023-01-13T07:57:54.760Z,100744.16
2023-01-13T08:00:21.748Z,100749.84
2023-01-13T08:02:48.362Z,100751.16
2023-01-13T08:05:14.938Z,100756.53
2023-01-13T08:07:41.502Z,100754.38
2023-01-13T08:10:08.795Z,100758.69
2023-01-13T08:12:57.001Z,100765.03
2023-01-13T08:15:23.857Z,100764.19
2023-01-13T08:17:50.425Z,100761.97
2023-01-13T08:20:17.177Z,100767.88
2023-01-13T08:22:44.328Z,100763.47
2023-01-13T08:25:11.034Z,100775.63
2023-01-13T08:27:37.620Z,100774.44
2023-01-13T08:30:05.624Z,100777.31
2023-01-13T08:32:32.254Z,100782.25
2023-01-13T08:34:58.823Z,100777.78
2023-01-13T08:37:25.457Z,100781.75
2023-01-13T08:39:52.028Z,100786.25
2023-01-13T08:42:18.624Z,100785.69
2023-01-13T08:44:45.199Z,100780.81
2023-01-13T08:47:11.806Z,100783.44
2023-01-13T08:49:38.401Z,100780.25
2023-01-13T08:52:05.023Z,100778.41
2023-01-13T08:54:31.773Z,100783.41
2023-01-13T08:56:58.433Z,100790.97
2023-01-13T08:59:25.180Z,100797.22
2023-01-13T09:01:51.835Z,100805.97
2023-01-13T09:04:21.919Z,100812.78
2023-01-13T09:06:49.807Z,100809.72
2023-01-13T09:09:16.951Z,100809.56
2023-01-13T09:12:05.524Z,100808.09
2023-01-13T09:14:34.592Z,100799.87
2023-01-13T09:17:01.669Z,100792.13
2023-01-13T09:19:29.524Z,100800.66
2023-01-13T09:21:57.348Z,100798.63
2023-01-13T09:24:25.012Z,100794.06
2023-01-13T09:26:51.617Z,100789.72
2023-01-13T09:29:18.536Z,100788.50
2023-01-13T09:31:45.848Z,100786.25
2023-01-13T09:34:37.351Z,100786.22
2023-01-13T09:37:06.153Z,100782.81
2023-01-13T09:39:34.048Z,100788.59
2023-01-13T09:42:55.988Z,100773.19
2023-01-13T09:45:25.435Z,100777.53
2023-01-13T09:48:12.625Z,100784.28
2023-01-13T09:50:48.296Z,100776.03
2023-01-13T09:53:42.389Z,100772.28
2023-01-13T09:56:11.863Z,100781.84
2023-01-13T09:58:38.475Z,100774.19
2023-01-13T10:01:20.608Z,100772.06
2023-01-13T10:03:49.946Z,100779.69
2023-01-13T10:06:30.461Z,100784.97
2023-01-13T10:08:57.691Z,100776.72
2023-01-13T10:11:49.237Z,100779.63
2023-01-13T10:14:24.488Z,100779.59
2023-01-13T10:16:58.713Z,100781.16
2023-01-13T10:19:37.110Z,100772.59
2023-01-13T10:22:08.443Z,100775.25
2023-01-13T10:24:41.809Z,100777.75
2023-01-13T10:27:17.850Z,100771.12
2023-01-13T10:29:44.442Z,100770.56
2023-01-13T10:32:11.200Z,100765.66
2023-01-13T10:34:50.864Z,100765.69
2023-01-13T10:37:26.982Z,100771.66
2023-01-13T10:40:00.770Z,100773.78
2023-01-13T10:42:27.470Z,100776.91
2023-01-13T10:44:56.636Z,100776.97
2023-01-13T10:47:34.478Z,100771.56
2023-01-13T10:50:13.307Z,100759.50
2023-01-13T10:52:55.134Z,100767.91
2023-01-13T10:55:30.510Z,100761.19
2023-01-13T10:57:57.110Z,100752.81
2023-01-13T11:00:33.277Z,100743.66
2023-01-13T11:03:19.439Z,100747.69
2023-01-13T11:06:04.355Z,100742.03
2023-01-13T11:08:42.937Z,100740.56
2023-01-13T11:11:31.849Z,100735.63
2023-01-13T11:14:22.783Z,100722.81
2023-01-13T11:16:55.667Z,100719.75
2023-01-13T11:19:29.747Z,100717.94
2023-01-13T11:22:09.209Z,100721.47
2023-01-13T11:24:57.066Z,100715.34
2023-01-13T11:28:06.876Z,100709.75
2023-01-13T11:30:53.105Z,100710.16
2023-01-13T11:33:37.826Z,100701.47
2023-01-13T11:36:39.499Z,100697.84
2023-01-13T11:39:35.118Z,100690.22
2023-01-13T11:42:24.273Z,100688.34
2023-01-13T11:45:19.016Z,100685.78
2023-01-13T11:47:49.398Z,100683.47
2023-01-13T11:50:35.000Z,100675.97
2023-01-13T11:53:33.786Z,100680.94
2023-01-13T11:56:40.588Z,100676.28
2023-01-13T11:59:22.335Z,100666.88
2023-01-13T12:01:54.924Z,100667.44
2023-01-13T12:04:57.630Z,100676.41
2023-01-13T12:08:03.060Z,100664.66
2023-01-13T12:10:42.861Z,100659.31
2023-01-13T12:13:10.785Z,100644.44
2023-01-13T12:16:16.112Z,100639.75
2023-01-13T12:19:18.594Z,100636.28
2023-01-13T12:22:23.974Z,100634.13
2023-01-13T12:25:16.939Z,100631.91
2023-01-13T12:27:49.429Z,100620.47
2023-01-13T12:30:40.617Z,100612.91
2023-01-13T12:33:18.006Z,100601.28
2023-01-13T12:36:09.150Z,100604.38
2023-01-13T12:38:40.586Z,100597.50
2023-01-13T12:41:16.102Z,100593.41
2023-01-13T12:44:06.784Z,100603.03
2023-01-13T12:46:34.120Z,100594.06
2023-01-13T12:49:04.647Z,100592.91
2023-01-13T12:51:37.881Z,100595.63
2023-01-13T12:54:29.855Z,100597.81
2023-01-13T12:56:57.896Z,100613.78
2023-01-13T12:59:24.409Z,100615.88
2023-01-13T13:02:12.527Z,100605.72
2023-01-13T13:04:48.413Z,100616.66
2023-01-13T13:07:52.123Z,100614.72
2023-01-13T13:10:30.474Z,100612.72
2023-01-13T13:13:18.642Z,100618.62
2023-01-13T13:15:50.314Z,100613.91
2023-01-13T13:18:16.904Z,100604.34
2023-01-13T13:20:54.260Z,100612.03
2023-01-13T13:23:48.120Z,100605.38
2023-01-13T13:26:25.030Z,100609.50
2023-01-13T13:29:13.016Z,100617.94
2023-01-13T13:32:04.743Z,100627.78
2023-01-13T13:34:59.648Z,100628.75
2023-01-13T13:38:01.433Z,100625.94
2023-01-13T13:40:51.347Z,100629.16
2023-01-13T13:43:38.621Z,100629.44
2023-01-13T13:46:42.891Z,100635.47
2023-01-13T13:49:09.505Z,100632.97
2023-01-13T13:51:46.342Z,100628.09
2023-01-13T13:54:17.515Z,100625.34
2023-01-13T13:56:46.822Z,100625.53
2023-01-13T13:59:18.523Z,100628.41
2023-01-13T14:01:49.996Z,100644.94
2023-01-13T14:04:23.546Z,100631.31
2023-01-13T14:06:56.378Z,100621.69
2023-01-13T14:09:27.030Z,100630.19
2023-01-13T14:12:08.830Z,100631.62
2023-01-13T14:14:35.398Z,100628.41
2023-01-13T14:17:01.998Z,100625.34
2023-01-13T14:19:33.303Z,100635.25
2023-01-13T14:22:02.527Z,100640.72
2023-01-13T14:24:32.887Z,100633.69
2023-01-13T14:27:11.230Z,100642.38
2023-01-13T14:29:38.119Z,100642.31
2023-01-13T14:32:06.900Z,100652.41
2023-01-13T14:34:34.721Z,100639.56
2023-01-13T14:37:03.077Z,100641.91
2023-01-13T14:39:40.164Z,100638.94
2023-01-13T14:42:13.290Z,100641.06
2023-01-13T14:44:45.481Z,100645.66
2023-01-13T14:47:33.842Z,100642.69
2023-01-13T14:50:16.098Z,100644.16
2023-01-13T14:52:55.680Z,100641.19
2023-01-13T14:55:37.306Z,100658.78
2023-01-13T14:58:22.328Z,100659.28
2023-01-13T15:00:50.248Z,100660.87
2023-01-13T15:03:18.760Z,100663.00
2023-01-13T15:05:49.346Z,100652.22
2023-01-13T15:08:17.178Z,100651.28
2023-01-13T15:10:51.351Z,100647.34
2023-01-13T15:13:27.213Z,100652.62
2023-01-13T15:15:57.146Z,100641.44
2023-01-13T15:18:24.361Z,100641.63
2023-01-13T15:20:51.096Z,100641.50
2023-01-13T15:23:19.603Z,100651.47
2023-01-13T15:25:47.367Z,100646.19
2023-01-13T15:28:20.873Z,100643.63
2023-01-13T15:30:51.779Z,100644.16
2023-01-13T15:33:19.106Z,100643.94
2023-01-13T15:35:51.580Z,100647.47
2023-01-13T15:38:22.025Z,100648.31
2023-01-13T15:40:50.980Z,100648.62
2023-01-13T15:43:42.097Z,100647.53
2023-01-13T15:46:39.070Z,100646.56
2023-01-13T15:49:24.977Z,100650.25
2023-01-13T15:51:51.584Z,100650.69
2023-01-13T15:54:22.666Z,100647.84
2023-01-13T15:56:49.423Z,100644.63
2023-01-13T15:59:19.095Z,100659.75
2023-01-13T16:01:48.224Z,100655.25
2023-01-13T16:04:14.897Z,100650.06
2023-01-13T16:06:41.594Z,100652.62
2023-01-13T16:09:08.314Z,100658.28
2023-01-13T16:11:39.382Z,100664.81
2023-01-13T16:14:08.132Z,100662.62
2023-01-13T16:16:36.901Z,100660.97
2023-01-13T16:19:03.709Z,100650.81
2023-01-13T16:21:30.414Z,100643.84
2023-01-13T16:23:57.015Z,100645.09
2023-01-13T16:26:27.617Z,100646.87
2023-01-13T16:28:54.895Z,100644.34
2023-01-13T16:31:33.551Z,100647.97
2023-01-13T16:34:03.887Z,100651.66
2023-01-13T16:36:34.582Z,100656.44
2023-01-13T16:39:08.525Z,100662.34
2023-01-13T16:41:38.325Z,100662.62
2023-01-13T16:44:07.997Z,100657.59
2023-01-13T16:46:34.607Z,100655.16
2023-01-13T16:49:12.261Z,100668.91
2023-01-13T16:51:42.078Z,100652.00
2023-01-13T16:54:08.783Z,100652.88
2023-01-13T16:56:36.891Z,100643.03
2023-01-13T16:59:16.081Z,100648.53
2023-01-13T17:01:44.972Z,100643.84
2023-01-13T17:04:20.301Z,100644.28
2023-01-13T17:06:58.323Z,100638.19
2023-01-13T17:09:27.915Z,100639.00
2023-01-13T17:11:55.199Z,100639.00
2023-01-13T17:14:23.399Z,100638.19
2023-01-13T17:16:51.759Z,100640.13
2023-01-13T17:19:19.179Z,100641.19
2023-01-13T17:21:47.172Z,100643.38
2023-01-13T17:24:14.308Z,100643.16
2023-01-13T17:26:48.684Z,100648.31
2023-01-13T17:29:22.155Z,100648.69
2023-01-13T17:31:50.082Z,100640.44
2023-01-13T17:34:16.782Z,100641.78
2023-01-13T17:36:43.540Z,100638.38
2023-01-13T17:39:16.145Z,100630.37
2023-01-13T17:41:42.711Z,100636.34
2023-01-13T17:44:15.859Z,100628.78
2023-01-13T17:46:43.502Z,100637.59
2023-01-13T17:49:11.855Z,100638.78
2023-01-13T17:51:44.789Z,100647.72
2023-01-13T17:54:12.435Z,100640.81
2023-01-13T17:56:42.411Z,100637.22
2023-01-13T17:59:11.914Z,100634.84
2023-01-13T18:01:39.126Z,100637.28
2023-01-13T18:04:06.967Z,100650.53
2023-01-13T18:06:33.947Z,100641.97
2023-01-13T18:09:01.204Z,100656.97
2023-01-13T18:11:27.875Z,100660.22
2023-01-13T18:13:56.883Z,100646.94
2023-01-13T18:16:25.250Z,100646.09
2023-01-13T18:18:53.652Z,100654.94
2023-01-13T18:21:45.374Z,100657.34
2023-01-13T18:24:32.512Z,100662.53
2023-01-13T18:27:18.040Z,100670.50
2023-01-13T18:29:50.125Z,100678.25
2023-01-13T18:32:17.506Z,100687.72
2023-01-13T18:34:44.131Z,100685.53
2023-01-13T18:37:12.103Z,100688.94
2023-01-13T18:39:38.723Z,100678.88
2023-01-13T18:42:25.393Z,100683.12
2023-01-13T18:44:53.209Z,100678.53
2023-01-13T18:47:20.157Z,100672.22
2023-01-13T18:49:46.879Z,100682.88
2023-01-13T18:52:13.798Z,100683.91
2023-01-13T18:54:40.546Z,100678.97
2023-01-13T18:57:07.344Z,100677.28
2023-01-13T18:59:34.746Z,100683.56
2023-01-13T19:02:02.379Z,100683.56
2023-01-13T19:04:29.687Z,100685.94
2023-01-13T19:07:00.930Z,100691.53
2023-01-13T19:09:31.358Z,100682.47
2023-01-13T19:11:59.153Z,100686.53
2023-01-13T19:14:34.906Z,100693.28
2023-01-13T19:17:09.331Z,100689.09
2023-01-13T19:19:44.775Z,100693.22
2023-01-13T19:22:13.129Z,100691.69
2023-01-13T19:24:43.157Z,100694.59
2023-01-13T19:27:11.123Z,100697.25
2023-01-13T19:29:37.892Z,100702.31
2023-01-13T19:32:12.646Z,100706.88
2023-01-13T19:34:39.442Z,100714.59
2023-01-13T19:37:06.785Z,100714.25
2023-01-13T19:39:34.595Z,100713.25
2023-01-13T19:42:20.925Z,100707.22
2023-01-13T19:45:06.394Z,100709.50
2023-01-13T19:47:33.521Z,100719.50
2023-01-13T19:50:03.612Z,100731.16
2023-01-13T19:52:30.882Z,100732.19
2023-01-13T19:54:57.549Z,100740.22
2023-01-13T19:57:26.653Z,100743.44
2023-01-13T19:59:53.322Z,100749.91
2023-01-13T20:02:28.053Z,100744.31
2023-01-13T20:04:56.572Z,100744.31
2023-01-13T20:07:24.709Z,100744.63
2023-01-13T20:09:52.493Z,100751.63
2023-01-13T20:12:20.216Z,100750.22
2023-01-13T20:14:50.064Z,100758.41
2023-01-13T20:17:18.646Z,100770.88
2023-01-13T20:19:45.494Z,100779.97
2023-01-13T20:22:12.409Z,100773.59
2023-01-13T20:24:39.120Z,100778.28
2023-01-13T20:27:06.134Z,100789.28
2023-01-13T20:29:33.074Z,100781.78
2023-01-13T20:31:59.845Z,100790.16
2023-01-13T20:34:26.589Z,100774.16
2023-01-13T20:36:53.442Z,100773.56
2023-01-13T20:39:22.796Z,100771.75
2023-01-13T20:42:07.967Z,100771.00
2023-01-13T20:44:34.635Z,100760.84
2023-01-13T20:47:02.885Z,100767.00
2023-01-13T20:49:30.393Z,100763.44
2023-01-13T20:51:57.690Z,100768.75
2023-01-13T20:54:25.208Z,100762.47
2023-01-13T20:56:51.946Z,100756.78
2023-01-13T20:59:18.649Z,100758.72
2023-01-13T21:01:45.428Z,100749.72
2023-01-13T21:04:12.090Z,100750.53
2023-01-13T21:06:38.730Z,100757.22
2023-01-13T21:09:07.737Z,100755.63
2023-01-13T21:11:53.642Z,100756.53
2023-01-13T21:14:41.535Z,100767.62
2023-01-13T21:17:29.213Z,100757.38
2023-01-13T21:19:56.274Z,100761.53
2023-01-13T21:22:23.001Z,100760.72
2023-01-13T21:24:52.402Z,100762.37
2023-01-13T21:27:19.010Z,100762.63
2023-01-13T21:29:46.347Z,100760.50
2023-01-13T21:32:15.454Z,100743.28
2023-01-13T21:34:42.203Z,100749.72
2023-01-13T21:37:08.836Z,100734.12
2023-01-13T21:39:35.437Z,100730.53
2023-01-13T21:42:20.593Z,100723.44
2023-01-13T21:45:05.525Z,100735.81
2023-01-13T21:47:50.775Z,100748.87
2023-01-13T21:50:23.248Z,100738.87
2023-01-13T21:52:52.990Z,100735.16
2023-01-13T21:55:25.622Z,100722.66
2023-01-13T21:57:59.470Z,100724.19
2023-01-13T22:00:28.836Z,100719.19
2023-01-13T22:03:00.123Z,100714.66
2023-01-13T22:05:26.938Z,100707.75
2023-01-13T22:07:53.626Z,100705.81
2023-01-13T22:10:28.164Z,100726.13
2023-01-13T22:12:56.814Z,100732.97
2023-01-13T22:15:30.304Z,100754.59
2023-01-13T22:18:01.597Z,100753.03
2023-01-13T22:20:30.659Z,100747.59
2023-01-13T22:22:58.142Z,100729.91
2023-01-13T22:25:24.704Z,100725.78
2023-01-13T22:27:52.449Z,100720.62
2023-01-13T22:30:21.828Z,100730.25
2023-01-13T22:32:48.546Z,100737.88
2023-01-13T22:35:15.747Z,100757.59
2023-01-13T22:37:43.256Z,100789.28
2023-01-13T22:40:12.104Z,100792.91
2023-01-13T22:42:42.920Z,100793.84
2023-01-13T22:45:13.793Z,100806.37
2023-01-13T22:47:40.454Z,100799.97
2023-01-13T22:50:08.010Z,100808.00
2023-01-13T22:52:35.641Z,100816.37
2023-01-13T22:55:02.370Z,100822.31
2023-01-13T22:57:36.785Z,100825.53
2023-01-13T23:00:10.195Z,100820.84
2023-01-13T23:02:39.233Z,100823.28
2023-01-13T23:05:06.163Z,100824.94
2023-01-13T23:07:34.980Z,100828.34
2023-01-13T23:10:03.753Z,100833.50
2023-01-13T23:12:30.343Z,100828.34
2023-01-13T23:14:56.931Z,100834.97
2023-01-13T23:17:23.513Z,100830.03
2023-01-13T23:19:50.162Z,100824.59
2023-01-13T23:22:16.758Z,100827.91
2023-01-13T23:24:43.338Z,100825.78
2023-01-13T23:27:09.921Z,100810.97
2023-01-13T23:29:36.742Z,100816.56
2023-01-13T23:32:03.566Z,100798.53
2023-01-13T23:34:30.717Z,100783.00
2023-01-13T23:36:57.303Z,100766.75
2023-01-13T23:39:24.691Z,100764.56
2023-01-13T23:41:51.432Z,100755.81
2023-01-13T23:44:20.338Z,100750.97
2023-01-13T23:46:47.027Z,100753.69
2023-01-13T23:49:13.883Z,100758.87
2023-01-13T23:51:42.938Z,100749.19
2023-01-13T23:54:12.036Z,100748.69
2023-01-13T23:56:39.635Z,100741.91
2023-01-13T23:59:08.969Z,100744.00
